Time;durP1;ratioP1;P1;durP2;ratioP2;P2;SDS_P1;SDS_P2;PMS_P1;PMS_P2;Temp;Humidity;BMP_temperature;BMP_pressure;BME280_temperature;BME280_humidity;BME280_pressure;Samples;Min_cycle;Max_cycle;Signal;HPM_P1;HPM_P2
2023/08/12 00:00:11;;;;;;;23.25;18.70;;;;;;;;;;5071098;28;20505;-65
2023/08/12 00:02:43;;;;;;;24.65;18.60;;;;;;;;;;5069298;28;20041;-65
2023/08/12 00:05:12;;;;;;;25.73;18.05;;;;;;;;;;5071047;28;20564;-65
2023/08/12 00:07:37;;;;;;;;;;;;;;;;;;5070277;28;20033;-66
2023/08/12 00:10:04;;;;;;;30.02;19.52;;;;;;;;;;5070644;28;19904;-66
2023/08/12 00:12:29;;;;;;;31.67;18.70;;;;;;;;;;5068797;28;20044;-66
2023/08/12 00:14:54;;;;;;;31.50;20.90;;;;;;;;;;5070387;28;20020;-66
2023/08/12 00:17:19;;;;;;;33.22;20.25;;;;;;;;;;5068573;28;20504;-65
2023/08/12 00:19:44;;;;;;;26.33;20.17;;;;;;;;;;5070833;28;20053;-66
2023/08/12 00:22:10;;;;;;;34.90;21.42;;;;;;;;;;5069562;28;20048;-66
2023/08/12 00:24:35;;;;;;;30.37;21.37;;;;;;;;;;5070503;28;20073;-64
2023/08/12 00:27:00;;;;;;;32.60;21.42;;;;;;;;;;5069142;28;20055;-65
2023/08/12 00:29:25;;;;;;;29.38;22.13;;;;;;;;;;5070656;28;20281;-65
2023/08/12 00:31:51;;;;;;;33.03;23.47;;;;;;;;;;5068576;28;20036;-67
2023/08/12 00:34:17;;;;;;;31.30;21.63;;;;;;;;;;5070722;28;20031;-67
2023/08/12 00:36:42;;;;;;;24.83;21.77;;;;;;;;;;5069539;28;20045;-66
2023/08/12 00:39:07;;;;;;;29.53;20.40;;;;;;;;;;5070295;28;20020;-66
2023/08/12 00:41:32;;;;;;;31.97;24.40;;;;;;;;;;5069069;28;20056;-65
2023/08/12 00:43:57;;;;;;;40.53;23.77;;;;;;;;;;5070480;28;20043;-64
2023/08/12 00:46:23;;;;;;;38.37;25.47;;;;;;;;;;5068689;28;20040;-64
2023/08/12 00:48:49;;;;;;;33.47;22.98;;;;;;;;;;5070899;28;20059;-64
2023/08/12 00:51:15;;;;;;;34.03;23.17;;;;;;;;;;5068941;28;20458;-64
2023/08/12 00:53:41;;;;;;;44.10;27.27;;;;;;;;;;5069962;28;20025;-64
2023/08/12 00:56:06;;;;;;;40.28;25.30;;;;;;;;;;5069153;28;20089;-65
2023/08/12 00:58:31;;;;;;;31.33;25.40;;;;;;;;;;5070660;28;20063;-64
2023/08/12 01:00:56;;;;;;;33.90;22.43;;;;;;;;;;5068600;28;20538;-64
2023/08/12 01:03:21;;;;;;;30.63;22.23;;;;;;;;;;5070408;28;20013;-65
2023/08/12 01:05:47;;;;;;;38.20;24.75;;;;;;;;;;5069521;28;20024;-66
2023/08/12 01:08:12;;;;;;;34.10;26.70;;;;;;;;;;5069654;28;20384;-65
2023/08/12 01:10:39;;;;;;;38.17;26.40;;;;;;;;;;5068590;28;20025;-65
2023/08/12 01:13:09;;;;;;;43.78;26.90;;;;;;;;;;5069259;28;20017;-65
2023/08/12 01:15:35;;;;;;;35.20;23.60;;;;;;;;;;5068177;28;20139;-62
2023/08/12 01:18:00;;;;;;;35.65;25.75;;;;;;;;;;5070474;28;20050;-64
2023/08/12 01:20:26;;;;;;;37.83;24.37;;;;;;;;;;5069868;28;20075;-64
2023/08/12 01:23:01;;;;;;;33.67;25.20;;;;;;;;;;5068248;28;20490;-64
2023/08/12 01:25:26;;;;;;;36.08;27.65;;;;;;;;;;5070726;28;20591;-65
2023/08/12 01:27:51;;;;;;;33.77;25.73;;;;;;;;;;5071244;28;20115;-64
2023/08/12 01:30:18;;;;;;;37.83;23.57;;;;;;;;;;5073661;28;20012;-65
2023/08/12 01:32:53;;;;;;;34.60;23.08;;;;;;;;;;5072088;28;20806;-65
2023/08/12 01:35:25;;;;;;;29.70;21.63;;;;;;;;;;5073756;28;20009;-65
2023/08/12 01:37:51;;;;;;;39.33;24.50;;;;;;;;;;5072102;28;20056;-65
2023/08/12 01:40:17;;;;;;;40.65;25.27;;;;;;;;;;5073730;28;20082;-65
2023/08/12 01:42:42;;;;;;;38.92;23.92;;;;;;;;;;5070576;28;20036;-66
2023/08/12 01:45:08;;;;;;;31.60;23.00;;;;;;;;;;5073377;28;20024;-65
2023/08/12 01:47:33;;;;;;;33.97;26.02;;;;;;;;;;5071904;28;21077;-65
2023/08/12 01:49:58;;;;;;;33.73;23.00;;;;;;;;;;5073726;28;20099;-65
2023/08/12 01:52:24;;;;;;;31.33;22.23;;;;;;;;;;5071713;28;20443;-65
2023/08/12 01:54:49;;;;;;;33.17;21.45;;;;;;;;;;5073851;28;20021;-65
2023/08/12 01:57:14;;;;;;;34.20;22.85;;;;;;;;;;5071812;28;20033;-64
2023/08/12 01:59:40;;;;;;;28.20;23.50;;;;;;;;;;5073447;28;20336;-64
2023/08/12 02:02:05;;;;;;;29.73;21.97;;;;;;;;;;5071693;28;20032;-64
2023/08/12 02:04:30;;;;;;;30.43;21.70;;;;;;;;;;5073076;28;20936;-64
2023/08/12 02:06:56;;;;;;;30.65;22.00;;;;;;;;;;5071773;28;20095;-65
2023/08/12 02:09:22;;;;;;;33.00;21.80;;;;;;;;;;5072949;28;20024;-64
2023/08/12 02:11:47;;;;;;;32.75;22.38;;;;;;;;;;5071611;28;20039;-64
2023/08/12 02:14:12;;;;;;;30.88;21.48;;;;;;;;;;5072508;28;20024;-64
2023/08/12 02:16:37;;;;;;;24.88;20.35;;;;;;;;;;5071928;28;20056;-64
2023/08/12 02:19:03;;;;;;;33.85;24.67;;;;;;;;;;5072926;28;20071;-65
2023/08/12 02:21:28;;;;;;;30.40;22.97;;;;;;;;;;5071258;28;20036;-64
2023/08/12 02:23:53;;;;;;;32.97;25.30;;;;;;;;;;5073107;28;20992;-64
2023/08/12 02:26:18;;;;;;;28.93;23.83;;;;;;;;;;5070708;28;20050;-64
2023/08/12 02:28:43;;;;;;;35.60;23.27;;;;;;;;;;5072563;28;20384;-64
2023/08/12 02:31:09;;;;;;;39.73;22.33;;;;;;;;;;5071012;28;20086;-64
2023/08/12 02:33:34;;;;;;;32.37;23.47;;;;;;;;;;5071238;28;20458;-64
2023/08/12 02:35:59;;;;;;;30.33;23.30;;;;;;;;;;5071185;28;20033;-64
2023/08/12 02:38:24;;;;;;;28.33;24.13;;;;;;;;;;5072160;28;20028;-65
2023/08/12 02:40:50;;;;;;;31.80;22.57;;;;;;;;;;5071453;28;20020;-65
2023/08/12 02:43:15;;;;;;;30.33;23.38;;;;;;;;;;5072541;28;20753;-65
2023/08/12 02:45:40;;;;;;;27.27;22.10;;;;;;;;;;5071715;28;20039;-64
2023/08/12 02:48:05;;;;;;;43.22;23.20;;;;;;;;;;5092325;28;20024;-64
2023/08/12 02:50:31;;;;;;;31.33;21.63;;;;;;;;;;5092540;28;20081;-65
2023/08/12 02:52:56;;;;;;;29.43;23.40;;;;;;;;;;5069797;28;20041;-65
2023/08/12 02:55:21;;;;;;;36.60;23.85;;;;;;;;;;5072195;28;20493;-65
2023/08/12 02:57:46;;;;;;;30.83;20.55;;;;;;;;;;5071122;28;20044;-65
2023/08/12 03:00:12;;;;;;;28.63;21.90;;;;;;;;;;5071409;28;20020;-65
2023/08/12 03:02:37;;;;;;;29.80;21.45;;;;;;;;;;5070654;28;20384;-64
2023/08/12 03:05:03;;;;;;;28.07;21.77;;;;;;;;;;5072406;28;20027;-65
2023/08/12 03:07:28;;;;;;;29.45;20.67;;;;;;;;;;5070117;28;20060;-64
2023/08/12 03:09:53;;;;;;;29.65;23.58;;;;;;;;;;5071987;28;20034;-65
2023/08/12 03:12:18;;;;;;;25.80;21.93;;;;;;;;;;5069959;28;20043;-64
2023/08/12 03:14:44;;;;;;;33.35;19.42;;;;;;;;;;5072024;28;20024;-65
2023/08/12 03:17:09;;;;;;;21.77;18.20;;;;;;;;;;5070819;28;20039;-64
2023/08/12 03:19:34;;;;;;;25.13;20.00;;;;;;;;;;5071576;28;20068;-65
2023/08/12 03:21:59;;;;;;;26.42;21.88;;;;;;;;;;5070322;28;20059;-66
2023/08/12 03:24:24;;;;;;;29.17;21.80;;;;;;;;;;5071706;28;20024;-64
2023/08/12 03:26:49;;;;;;;32.55;20.52;;;;;;;;;;5070099;28;20036;-65
2023/08/12 03:29:15;;;;;;;32.83;23.73;;;;;;;;;;5071183;28;20040;-66
2023/08/12 03:31:40;;;;;;;28.27;20.10;;;;;;;;;;5069930;28;20124;-65
2023/08/12 03:34:05;;;;;;;27.13;21.08;;;;;;;;;;5072076;28;20415;-65
2023/08/12 03:36:30;;;;;;;25.43;19.83;;;;;;;;;;5069240;28;20496;-65
2023/08/12 03:38:55;;;;;;;31.70;20.52;;;;;;;;;;5071717;28;20055;-65
2023/08/12 03:41:20;;;;;;;33.10;20.92;;;;;;;;;;5069811;28;20037;-65
2023/08/12 03:43:46;;;;;;;25.15;21.45;;;;;;;;;;5071295;28;20450;-65
2023/08/12 03:46:11;;;;;;;28.10;20.38;;;;;;;;;;5069881;28;20047;-65
2023/08/12 03:48:36;;;;;;;29.10;19.47;;;;;;;;;;5070835;28;20029;-65
2023/08/12 03:51:01;;;;;;;27.27;20.20;;;;;;;;;;5069317;28;20033;-65
2023/08/12 03:53:26;;;;;;;22.57;18.60;;;;;;;;;;5071179;28;20423;-65
2023/08/12 03:55:51;;;;;;;23.00;20.07;;;;;;;;;;5070001;28;20056;-66
2023/08/12 03:58:17;;;;;;;27.17;19.63;;;;;;;;;;5070624;28;20020;-65
2023/08/12 04:00:45;;;;;;;25.00;18.30;;;;;;;;;;5068340;28;20051;-66
2023/08/12 04:03:10;;;;;;;33.22;20.60;;;;;;;;;;5071233;28;20023;-66
2023/08/12 04:05:35;;;;;;;25.35;18.90;;;;;;;;;;5069200;28;20025;-63
2023/08/12 04:08:00;;;;;;;28.30;20.58;;;;;;;;;;5070860;28;20017;-63
2023/08/12 04:10:25;;;;;;;26.80;19.75;;;;;;;;;;5070770;28;20063;-65
2023/08/12 04:12:51;;;;;;;27.63;21.17;;;;;;;;;;5069252;28;20564;-65
2023/08/12 04:15:16;;;;;;;31.50;20.10;;;;;;;;;;5070564;28;20986;-65
2023/08/12 04:17:41;;;;;;;24.87;19.03;;;;;;;;;;5069572;28;20057;-65
2023/08/12 04:20:07;;;;;;;27.47;19.60;;;;;;;;;;5069239;28;20402;-65
2023/08/12 04:22:32;;;;;;;23.17;18.30;;;;;;;;;;5069298;28;20036;-66
2023/08/12 04:24:57;;;;;;;33.67;17.83;;;;;;;;;;5071029;28;20017;-66
2023/08/12 04:27:22;;;;;;;32.15;19.77;;;;;;;;;;5068675;28;20495;-65
2023/08/12 04:29:48;;;;;;;34.10;18.27;;;;;;;;;;5070738;28;20016;-65
2023/08/12 04:32:13;;;;;;;25.35;18.38;;;;;;;;;;5068916;28;20049;-65
2023/08/12 04:34:38;;;;;;;32.43;19.17;;;;;;;;;;5070651;28;20024;-65
2023/08/12 04:37:03;;;;;;;34.72;18.65;;;;;;;;;;5069400;28;20043;-65
2023/08/12 04:39:28;;;;;;;30.10;18.33;;;;;;;;;;5070520;28;20024;-63
2023/08/12 04:41:53;;;;;;;27.90;19.17;;;;;;;;;;5069140;28;20060;-63
2023/08/12 04:44:19;;;;;;;26.83;20.52;;;;;;;;;;5070730;28;20371;-63
2023/08/12 04:46:44;;;;;;;42.17;22.43;;;;;;;;;;5069335;28;20041;-63
2023/08/12 04:49:09;;;;;;;29.83;18.90;;;;;;;;;;5070068;28;20038;-67
2023/08/12 04:51:34;;;;;;;27.00;19.10;;;;;;;;;;5069194;28;20037;-65
2023/08/12 04:54:01;;;;;;;27.37;19.33;;;;;;;;;;5070719;28;20052;-65
2023/08/12 04:56:28;;;;;;;28.52;17.95;;;;;;;;;;5057991;28;20045;-64
2023/08/12 04:58:54;;;;;;;33.08;20.92;;;;;;;;;;5066565;28;20078;-64
2023/08/12 05:01:19;;;;;;;29.05;20.40;;;;;;;;;;5070438;28;20037;-65
2023/08/12 05:03:44;;;;;;;26.63;18.50;;;;;;;;;;5074023;28;20024;-67
2023/08/12 05:06:09;;;;;;;26.23;17.08;;;;;;;;;;5072176;28;20522;-65
2023/08/12 05:08:34;;;;;;;22.23;16.70;;;;;;;;;;5073312;28;20112;-63
2023/08/12 05:10:59;;;;;;;24.48;19.55;;;;;;;;;;5073139;28;20033;-64
2023/08/12 05:13:25;;;;;;;27.13;19.13;;;;;;;;;;5073617;28;20028;-63
2023/08/12 05:15:50;;;;;;;28.63;20.83;;;;;;;;;;5070946;28;20016;-63
2023/08/12 05:18:15;;;;;;;25.55;16.55;;;;;;;;;;5074136;28;20051;-64
2023/08/12 05:20:41;;;;;;;28.13;18.67;;;;;;;;;;5072196;28;20031;-63
2023/08/12 05:23:06;;;;;;;28.23;17.40;;;;;;;;;;5073920;28;20019;-63
2023/08/12 05:25:31;;;;;;;31.03;21.13;;;;;;;;;;5073247;28;20025;-63
2023/08/12 05:27:57;;;;;;;27.50;17.80;;;;;;;;;;5072183;28;20056;-63
2023/08/12 05:30:22;;;;;;;32.28;20.02;;;;;;;;;;5073602;28;20032;-63
2023/08/12 05:32:47;;;;;;;24.77;17.13;;;;;;;;;;5072623;28;20028;-64
2023/08/12 05:35:12;;;;;;;24.67;19.48;;;;;;;;;;5072814;28;20052;-63
2023/08/12 05:37:37;;;;;;;29.00;18.00;;;;;;;;;;5072259;28;20840;-63
2023/08/12 05:40:07;;;;;;;33.97;19.43;;;;;;;;;;5074304;28;20966;-63
2023/08/12 05:42:33;;;;;;;22.35;17.67;;;;;;;;;;5068868;28;20447;-64
2023/08/12 05:44:58;;;;;;;32.78;22.17;;;;;;;;;;5071571;28;20093;-65
2023/08/12 05:47:23;;;;;;;26.65;18.65;;;;;;;;;;5063924;28;20047;-67
2023/08/12 05:49:49;;;;;;;26.70;18.85;;;;;;;;;;5071476;28;20036;-67
2023/08/12 05:52:14;;;;;;;22.55;15.43;;;;;;;;;;5071578;28;20430;-67
2023/08/12 05:54:39;;;;;;;21.50;16.03;;;;;;;;;;5073539;28;20028;-67
2023/08/12 05:57:04;;;;;;;21.27;16.93;;;;;;;;;;5071132;28;20523;-68
2023/08/12 05:59:29;;;;;;;20.67;15.43;;;;;;;;;;5073132;28;20115;-67
2023/08/12 06:01:54;;;;;;;36.90;18.90;;;;;;;;;;5071521;28;20561;-65
2023/08/12 06:04:20;;;;;;;23.97;16.13;;;;;;;;;;5069456;28;20470;-71
2023/08/12 06:06:45;;;;;;;27.07;16.50;;;;;;;;;;5070527;28;20041;-70
2023/08/12 06:09:10;;;;;;;19.07;15.83;;;;;;;;;;5072546;28;20114;-64
2023/08/12 06:11:35;;;;;;;24.10;16.93;;;;;;;;;;5069247;28;20501;-64
2023/08/12 06:14:00;;;;;;;29.43;17.77;;;;;;;;;;5071719;28;20073;-65
2023/08/12 06:16:26;;;;;;;22.30;16.20;;;;;;;;;;5070619;28;20071;-64
2023/08/12 06:18:51;;;;;;;26.65;18.33;;;;;;;;;;5071648;28;20181;-65
2023/08/12 06:21:17;;;;;;;25.83;19.35;;;;;;;;;;5069809;28;20123;-64
2023/08/12 06:23:42;;;;;;;28.40;20.37;;;;;;;;;;5069798;28;20464;-65
2023/08/12 06:26:08;;;;;;;30.77;21.98;;;;;;;;;;5068507;28;20078;-64
2023/08/12 06:28:33;;;;;;;30.52;21.20;;;;;;;;;;5069749;28;20039;-64
2023/08/12 06:30:58;;;;;;;32.30;21.60;;;;;;;;;;5071011;28;20086;-64
2023/08/12 06:33:23;;;;;;;31.83;21.43;;;;;;;;;;5071584;28;20439;-62
2023/08/12 06:35:50;;;;;;;28.48;20.95;;;;;;;;;;5069578;28;20824;-63
2023/08/12 06:38:15;;;;;;;26.17;20.23;;;;;;;;;;5071780;28;20693;-63
2023/08/12 06:40:40;;;;;;;38.93;23.07;;;;;;;;;;5070383;28;20017;-63
2023/08/12 06:43:07;;;;;;;31.33;20.27;;;;;;;;;;5071549;28;20017;-63
2023/08/12 06:45:32;;;;;;;46.33;26.90;;;;;;;;;;5059396;28;20090;-64
2023/08/12 06:47:57;;;;;;;40.97;25.15;;;;;;;;;;5069560;28;20491;-65
2023/08/12 06:50:23;;;;;;;39.17;27.20;;;;;;;;;;5070366;28;20025;-64
2023/08/12 06:52:48;;;;;;;41.10;25.42;;;;;;;;;;5070634;28;20461;-63
2023/08/12 06:55:13;;;;;;;44.75;27.92;;;;;;;;;;5070805;28;20025;-64
2023/08/12 06:57:38;;;;;;;52.73;28.30;;;;;;;;;;5062857;28;20504;-63
2023/08/12 07:00:05;;;;;;;62.30;30.23;;;;;;;;;;5071179;28;20798;-63
2023/08/12 07:02:30;;;;;;;42.17;30.10;;;;;;;;;;5069125;28;20526;-63
2023/08/12 07:04:55;;;;;;;52.47;29.40;;;;;;;;;;5070456;28;20048;-63
2023/08/12 07:07:20;;;;;;;56.55;32.92;;;;;;;;;;5069274;28;20040;-64
2023/08/12 07:09:45;;;;;;;56.60;31.43;;;;;;;;;;5070568;28;20032;-64
2023/08/12 07:12:10;;;;;;;50.33;32.58;;;;;;;;;;5068467;28;20473;-64
2023/08/12 07:14:36;;;;;;;43.47;32.45;;;;;;;;;;5071154;28;20377;-64
2023/08/12 07:17:01;;;;;;;51.45;35.15;;;;;;;;;;5069400;28;20048;-64
2023/08/12 07:19:26;;;;;;;50.60;32.67;;;;;;;;;;5070922;28;20044;-64
2023/08/12 07:21:51;;;;;;;61.78;38.65;;;;;;;;;;5068917;28;20123;-64
2023/08/12 07:24:16;;;;;;;66.03;39.73;;;;;;;;;;5070683;28;20016;-64
2023/08/12 07:26:42;;;;;;;64.43;33.80;;;;;;;;;;5069466;28;20488;-65
2023/08/12 07:29:08;;;;;;;48.95;33.13;;;;;;;;;;5071588;28;20051;-65
2023/08/12 07:31:33;;;;;;;58.85;33.72;;;;;;;;;;5070028;28;20115;-65
2023/08/12 07:33:58;;;;;;;51.83;33.03;;;;;;;;;;5070813;28;20024;-66
2023/08/12 07:36:23;;;;;;;46.95;30.02;;;;;;;;;;5069602;28;20119;-66
2023/08/12 07:38:49;;;;;;;51.83;32.57;;;;;;;;;;5071058;28;20107;-66
2023/08/12 07:41:14;;;;;;;40.85;27.83;;;;;;;;;;5068739;28;20545;-65
2023/08/12 07:43:39;;;;;;;44.25;29.17;;;;;;;;;;5066391;28;20052;-66
2023/08/12 07:46:05;;;;;;;48.60;28.20;;;;;;;;;;5067418;28;20040;-66
2023/08/12 07:48:30;;;;;;;44.75;29.23;;;;;;;;;;5069078;28;20534;-66
2023/08/12 07:50:59;;;;;;;34.80;25.43;;;;;;;;;;5068783;28;20035;-65
2023/08/12 07:53:24;;;;;;;44.80;30.10;;;;;;;;;;5070059;28;20071;-66
2023/08/12 07:55:49;;;;;;;46.80;28.13;;;;;;;;;;5068913;28;20448;-66
2023/08/12 07:58:14;;;;;;;46.60;28.40;;;;;;;;;;5070921;28;20016;-66
2023/08/12 08:00:40;;;;;;;41.05;29.55;;;;;;;;;;5069368;28;20356;-66
2023/08/12 08:03:05;;;;;;;47.10;29.20;;;;;;;;;;5070323;28;20035;-66
2023/08/12 08:05:30;;;;;;;38.92;26.88;;;;;;;;;;5070902;28;20419;-67
2023/08/12 08:07:55;;;;;;;44.92;28.75;;;;;;;;;;5069403;28;20032;-67
2023/08/12 08:10:20;;;;;;;37.70;25.10;;;;;;;;;;5067398;28;20028;-65
2023/08/12 08:12:46;;;;;;;41.75;26.95;;;;;;;;;;5062707;28;20040;-67
2023/08/12 08:15:11;;;;;;;37.73;26.30;;;;;;;;;;5070395;28;20471;-66
2023/08/12 08:17:36;;;;;;;40.67;27.92;;;;;;;;;;5068245;28;20051;-66
2023/08/12 08:20:02;;;;;;;41.70;27.43;;;;;;;;;;5067550;28;21449;-66
2023/08/12 08:22:28;;;;;;;32.92;22.38;;;;;;;;;;5067704;28;20040;-66
2023/08/12 08:24:53;;;;;;;30.60;22.33;;;;;;;;;;5070174;28;20027;-66
2023/08/12 08:27:18;;;;;;;31.63;23.52;;;;;;;;;;5068731;28;20056;-66
2023/08/12 08:29:43;;;;;;;26.97;19.77;;;;;;;;;;5065661;28;20375;-66
2023/08/12 08:32:08;;;;;;;23.98;18.10;;;;;;;;;;5068663;28;20997;-65
2023/08/12 08:34:33;;;;;;;19.53;16.73;;;;;;;;;;5069984;28;20067;-65
2023/08/12 08:36:59;;;;;;;21.93;16.53;;;;;;;;;;5068824;28;20082;-65
2023/08/12 08:39:24;;;;;;;24.67;18.07;;;;;;;;;;5070028;28;20020;-65
2023/08/12 08:41:49;;;;;;;20.23;13.85;;;;;;;;;;5069368;28;20395;-65
2023/08/12 08:44:15;;;;;;;24.37;16.03;;;;;;;;;;5069586;28;20494;-65
2023/08/12 08:46:41;;;;;;;16.40;13.32;;;;;;;;;;5068443;28;20077;-65
2023/08/12 08:49:06;;;;;;;16.00;12.90;;;;;;;;;;5070265;28;20020;-65
2023/08/12 08:51:32;;;;;;;16.40;13.48;;;;;;;;;;5066889;28;20103;-65
2023/08/12 08:53:57;;;;;;;17.23;13.45;;;;;;;;;;5069757;28;20020;-66
2023/08/12 08:56:23;;;;;;;19.50;14.38;;;;;;;;;;5069776;28;20024;-65
2023/08/12 08:58:48;;;;;;;11.77;10.10;;;;;;;;;;5068843;28;20051;-66
2023/08/12 09:01:15;;;;;;;13.93;11.67;;;;;;;;;;5069612;28;20467;-66
2023/08/12 09:03:40;;;;;;;14.90;12.48;;;;;;;;;;5068778;28;20055;-68
2023/08/12 09:06:06;;;;;;;13.25;11.52;;;;;;;;;;5070062;28;20468;-65
2023/08/12 09:08:31;;;;;;;12.45;11.13;;;;;;;;;;5067812;28;20029;-65
2023/08/12 09:10:57;;;;;;;13.50;12.20;;;;;;;;;;5069920;28;20023;-65
2023/08/12 09:13:23;;;;;;;10.95;9.93;;;;;;;;;;5068438;28;20028;-65
2023/08/12 09:15:48;;;;;;;10.38;8.75;;;;;;;;;;5069730;28;20037;-66
2023/08/12 09:18:15;;;;;;;8.82;8.02;;;;;;;;;;5068160;28;20028;-65
2023/08/12 09:20:41;;;;;;;10.80;8.75;;;;;;;;;;5070053;28;20094;-65
2023/08/12 09:23:08;;;;;;;9.10;8.27;;;;;;;;;;5067988;28;20036;-66
2023/08/12 09:25:35;;;;;;;7.65;6.95;;;;;;;;;;5069763;28;20447;-65
2023/08/12 09:28:00;;;;;;;8.35;7.60;;;;;;;;;;5068571;28;20037;-65
2023/08/12 09:30:28;;;;;;;9.30;8.40;;;;;;;;;;5068945;28;20135;-65
2023/08/12 09:33:03;;;;;;;9.05;8.15;;;;;;;;;;5068368;28;20143;-65
2023/08/12 09:35:32;;;;;;;7.47;6.78;;;;;;;;;;5070015;28;20044;-66
2023/08/12 09:37:57;;;;;;;6.97;6.35;;;;;;;;;;5068021;28;20045;-66
2023/08/12 09:40:22;;;;;;;11.13;8.50;;;;;;;;;;5069570;28;20196;-66
2023/08/12 09:42:48;;;;;;;7.07;5.30;;;;;;;;;;5068476;28;21023;-65
2023/08/12 09:45:13;;;;;;;6.30;4.77;;;;;;;;;;5068834;28;21055;-66
2023/08/12 09:47:41;;;;;;;4.90;4.50;;;;;;;;;;5070639;28;20040;-65
2023/08/12 09:50:06;;;;;;;;;;;;;;;;;;5073800;28;20013;-66
2023/08/12 09:52:32;;;;;;;4.25;3.25;;;;;;;;;;5070905;28;19916;-66
2023/08/12 09:54:57;;;;;;;4.18;3.40;;;;;;;;;;5073435;28;20042;-66
2023/08/12 09:57:25;;;;;;;5.40;3.60;;;;;;;;;;5071755;28;20041;-66
2023/08/12 09:59:53;;;;;;;4.47;3.50;;;;;;;;;;5068945;28;20078;-66
2023/08/12 10:02:19;;;;;;;4.28;3.97;;;;;;;;;;5070358;28;20115;-66
2023/08/12 10:04:45;;;;;;;4.07;3.67;;;;;;;;;;5073343;28;20101;-68
2023/08/12 10:07:10;;;;;;;3.10;2.90;;;;;;;;;;5071308;28;20044;-65
2023/08/12 10:09:36;;;;;;;4.30;2.65;;;;;;;;;;5054539;28;20029;-66
2023/08/12 10:12:02;;;;;;;2.92;2.55;;;;;;;;;;5071519;28;20040;-65
2023/08/12 10:14:28;;;;;;;3.75;3.42;;;;;;;;;;5072195;28;20111;-66
2023/08/12 10:16:54;;;;;;;2.83;2.63;;;;;;;;;;5071423;28;20116;-66
2023/08/12 10:19:21;;;;;;;3.25;3.05;;;;;;;;;;5072593;28;20045;-66
2023/08/12 10:21:47;;;;;;;2.90;2.65;;;;;;;;;;5070780;28;20499;-66
2023/08/12 10:24:16;;;;;;;7.22;3.70;;;;;;;;;;5071587;28;20017;-66
2023/08/12 10:26:41;;;;;;;;;;;;;;;;;;5071967;28;20051;-66
2023/08/12 10:29:06;;;;;;;4.57;4.10;;;;;;;;;;5072923;28;20355;-67
2023/08/12 10:31:31;;;;;;;3.80;3.37;;;;;;;;;;5070514;28;20037;-66
2023/08/12 10:33:57;;;;;;;3.70;3.40;;;;;;;;;;5072762;28;20020;-65
2023/08/12 10:36:22;;;;;;;5.93;3.75;;;;;;;;;;5070498;28;20399;-67
2023/08/12 10:38:47;;;;;;;4.43;3.65;;;;;;;;;;5072067;28;20048;-66
2023/08/12 10:41:15;;;;;;;4.15;2.83;;;;;;;;;;5071028;28;20059;-66
2023/08/12 10:43:49;;;;;;;7.65;3.40;;;;;;;;;;5072477;28;20074;-67
2023/08/12 10:46:21;;;;;;;12.35;3.97;;;;;;;;;;5070229;28;20063;-66
2023/08/12 10:48:55;;;;;;;3.83;3.20;;;;;;;;;;5072105;28;20471;-67
2023/08/12 10:51:38;;;;;;;4.13;3.72;;;;;;;;;;5070607;28;20101;-66
2023/08/12 10:54:30;;;;;;;3.75;3.45;;;;;;;;;;5072037;28;20375;-66
2023/08/12 10:57:01;;;;;;;4.43;4.10;;;;;;;;;;5048665;28;20596;-66
2023/08/12 10:59:44;;;;;;;7.38;4.55;;;;;;;;;;5051042;28;20104;-65
2023/08/12 11:02:25;;;;;;;3.97;3.67;;;;;;;;;;5070403;28;20113;-66
2023/08/12 11:04:55;;;;;;;3.95;3.65;;;;;;;;;;5071988;28;20025;-66
2023/08/12 11:07:21;;;;;;;3.58;2.90;;;;;;;;;;5070051;28;20033;-65
2023/08/12 11:09:52;;;;;;;4.50;3.28;;;;;;;;;;5071773;28;20032;-66
2023/08/12 11:12:18;;;;;;;8.88;2.92;;;;;;;;;;5070089;28;20044;-66
2023/08/12 11:14:48;;;;;;;2.80;2.60;;;;;;;;;;5071566;28;20372;-65
2023/08/12 11:17:14;;;;;;;2.55;1.73;;;;;;;;;;5070394;28;20044;-65
2023/08/12 11:19:40;;;;;;;1.92;1.83;;;;;;;;;;5071952;28;20395;-66
2023/08/12 11:22:05;;;;;;;2.28;2.08;;;;;;;;;;5069986;28;20035;-65
2023/08/12 11:24:32;;;;;;;4.50;2.90;;;;;;;;;;5071728;28;20021;-65
2023/08/12 11:26:59;;;;;;;1.80;1.70;;;;;;;;;;5070559;28;20467;-66
2023/08/12 11:29:24;;;;;;;3.30;1.63;;;;;;;;;;5070801;28;20036;-66
2023/08/12 11:31:49;;;;;;;1.25;1.17;;;;;;;;;;5070486;28;20452;-66
2023/08/12 11:34:15;;;;;;;1.63;1.53;;;;;;;;;;5071781;28;20012;-66
2023/08/12 11:36:41;;;;;;;1.63;1.02;;;;;;;;;;5070037;28;20373;-64
2023/08/12 11:39:07;;;;;;;1.20;1.10;;;;;;;;;;5065257;28;20021;-66
2023/08/12 11:41:33;;;;;;;1.35;1.25;;;;;;;;;;5069946;28;20040;-66
2023/08/12 11:43:58;;;;;;;3.08;0.80;;;;;;;;;;5071006;28;20074;-66
2023/08/12 11:46:24;;;;;;;3.05;0.90;;;;;;;;;;5069992;28;20040;-66
2023/08/12 11:48:49;;;;;;;1.65;1.05;;;;;;;;;;5071863;28;20426;-66
2023/08/12 11:51:15;;;;;;;1.50;1.27;;;;;;;;;;5069541;28;20032;-66
2023/08/12 11:53:40;;;;;;;0.50;0.50;;;;;;;;;;5071315;28;20020;-66
2023/08/12 11:56:05;;;;;;;0.60;0.60;;;;;;;;;;5069533;28;20454;-65
2023/08/12 11:58:37;;;;;;;0.60;0.60;;;;;;;;;;5070854;28;20806;-65
2023/08/12 12:01:02;;;;;;;0.70;0.70;;;;;;;;;;5070061;28;20380;-66
2023/08/12 12:03:27;;;;;;;0.90;0.85;;;;;;;;;;5071348;28;20021;-66
2023/08/12 12:05:55;;;;;;;2.75;0.90;;;;;;;;;;5069816;28;20486;-66
2023/08/12 12:08:20;;;;;;;2.97;0.90;;;;;;;;;;5071010;28;20085;-66
2023/08/12 12:10:45;;;;;;;2.40;0.67;;;;;;;;;;5066290;28;20020;-66
2023/08/12 12:13:11;;;;;;;3.20;0.83;;;;;;;;;;5069825;28;20505;-64
2023/08/12 12:15:43;;;;;;;1.05;0.93;;;;;;;;;;5069286;28;20616;-64
2023/08/12 12:18:12;;;;;;;0.80;0.80;;;;;;;;;;5069135;28;20040;-63
2023/08/12 12:20:41;;;;;;;2.85;1.10;;;;;;;;;;5068678;28;20033;-63
2023/08/12 12:23:07;;;;;;;0.93;0.93;;;;;;;;;;5063998;28;20032;-64
2023/08/12 12:25:32;;;;;;;0.80;0.80;;;;;;;;;;5070481;28;20026;-64
2023/08/12 12:27:57;;;;;;;1.10;1.00;;;;;;;;;;5088410;28;20491;-64
2023/08/12 12:30:22;;;;;;;1.10;1.10;;;;;;;;;;5091083;28;20846;-64
2023/08/12 12:32:48;;;;;;;3.42;1.50;;;;;;;;;;5070606;28;20037;-64
2023/08/12 12:35:13;;;;;;;1.50;1.40;;;;;;;;;;5070238;28;20479;-64
2023/08/12 12:37:39;;;;;;;2.00;1.90;;;;;;;;;;5068127;28;20098;-64
2023/08/12 12:40:07;;;;;;;1.63;1.52;;;;;;;;;;5070854;28;20450;-64
2023/08/12 12:42:32;;;;;;;;;;;;;;;;;;5069826;28;20036;-64
2023/08/12 12:44:57;;;;;;;1.37;1.27;;;;;;;;;;5058675;28;20382;-64
2023/08/12 12:47:23;;;;;;;2.05;1.52;;;;;;;;;;5068604;28;20116;-64
2023/08/12 12:49:48;;;;;;;1.55;1.45;;;;;;;;;;5070689;28;20082;-68
2023/08/12 12:52:13;;;;;;;2.47;1.40;;;;;;;;;;5068322;28;20518;-62
2023/08/12 12:54:38;;;;;;;1.57;1.47;;;;;;;;;;5070482;28;20012;-62
2023/08/12 12:57:03;;;;;;;2.33;1.23;;;;;;;;;;5069195;28;20044;-62
2023/08/12 12:59:29;;;;;;;4.60;1.60;;;;;;;;;;5069942;28;20433;-62
2023/08/12 13:01:54;;;;;;;3.38;2.08;;;;;;;;;;5069353;28;20446;-62
2023/08/12 13:04:19;;;;;;;2.23;1.67;;;;;;;;;;5069941;28;20028;-62
2023/08/12 13:06:44;;;;;;;4.47;1.97;;;;;;;;;;5068109;28;20040;-62
2023/08/12 13:09:10;;;;;;;2.83;0.83;;;;;;;;;;5070180;28;20549;-63
2023/08/12 13:11:35;;;;;;;2.13;1.30;;;;;;;;;;5068886;28;20086;-62
2023/08/12 13:14:01;;;;;;;2.83;1.30;;;;;;;;;;5070028;28;20028;-63
2023/08/12 13:16:26;;;;;;;7.07;1.30;;;;;;;;;;5068957;28;20395;-63
2023/08/12 13:18:51;;;;;;;2.23;1.50;;;;;;;;;;5070276;28;20048;-63
2023/08/12 13:21:16;;;;;;;1.48;0.98;;;;;;;;;;5068978;28;20052;-63
2023/08/12 13:23:41;;;;;;;3.07;1.57;;;;;;;;;;5073945;28;20035;-63
2023/08/12 13:26:07;;;;;;;4.30;1.77;;;;;;;;;;5072924;28;20474;-64
2023/08/12 13:28:32;;;;;;;4.05;1.80;;;;;;;;;;5073284;28;20066;-63
2023/08/12 13:30:57;;;;;;;2.27;1.33;;;;;;;;;;5072973;28;20024;-63
2023/08/12 13:33:22;;;;;;;5.75;1.40;;;;;;;;;;5073987;28;20419;-62
2023/08/12 13:35:47;;;;;;;1.63;1.53;;;;;;;;;;5072229;28;20048;-62
2023/08/12 13:38:13;;;;;;;4.80;2.33;;;;;;;;;;5073621;28;20488;-63
2023/08/12 13:40:38;;;;;;;3.38;1.80;;;;;;;;;;5073950;28;20449;-62
2023/08/12 13:43:03;;;;;;;4.97;2.17;;;;;;;;;;5072152;28;20040;-63
2023/08/12 13:45:28;;;;;;;4.10;1.87;;;;;;;;;;5073453;28;20450;-63
2023/08/12 13:47:54;;;;;;;4.05;1.58;;;;;;;;;;5072466;28;20477;-63
2023/08/12 13:50:19;;;;;;;3.58;2.85;;;;;;;;;;5073253;28;20044;-63
2023/08/12 13:52:47;;;;;;;8.75;2.08;;;;;;;;;;5071337;28;20033;-63
2023/08/12 13:55:12;;;;;;;5.35;2.08;;;;;;;;;;5071915;28;20352;-62
2023/08/12 13:57:37;;;;;;;4.70;2.40;;;;;;;;;;5071848;28;20043;-63
2023/08/12 14:00:06;;;;;;;2.95;1.50;;;;;;;;;;5073967;28;20021;-62
2023/08/12 14:02:31;;;;;;;3.95;1.83;;;;;;;;;;5071754;28;20036;-63
2023/08/12 14:04:56;;;;;;;4.57;2.43;;;;;;;;;;5072966;28;20501;-62
2023/08/12 14:07:22;;;;;;;2.87;1.60;;;;;;;;;;5069604;28;20043;-63
2023/08/12 14:09:47;;;;;;;3.73;1.80;;;;;;;;;;5073292;28;20078;-63
2023/08/12 14:12:12;;;;;;;6.55;2.03;;;;;;;;;;5071122;28;20033;-62
2023/08/12 14:14:37;;;;;;;3.72;2.33;;;;;;;;;;5073526;28;20024;-64
2023/08/12 14:17:02;;;;;;;3.03;1.52;;;;;;;;;;5070743;28;20039;-63